Tuesday, May 24, 2016
15:45 UTC
  |  Log In   |  Register Free
Airport Search:

Southwest Georgia Regional Airport
(KABY)

FAA data valid effective Mar 31 2016 - May 26 2016 (unless otherwise noted).

 
 
 
 
 
 
 
 
 
 
 
 
 
 
Current Aviation Weather for KABY

Weather Summary


The most recent METAR observation for ABY was updated at: 12:53 UTC
METAR for KABY is not available. Closest METAR is for KCXU
KABY  (most recent observation was updatred at 24:14 UTC)
241453Z 08003KT 10SM CLR 29/10 A3016 RMK AO2 SLP211 T02940100 51012

KCXU  (19.5 nm NE)   (most recent observation was updated at 24:15 UTC)
241535Z AUTO 11003KT 10SM CLR 26/11 A3015 RMK AO2 T02610105

KMGR  (33.7 nm NW)   (most recent observation was updated at 24:15 UTC)
241534Z AUTO 14004KT 10SM CLR 28/13 A3015 RMK AO2

TAF for KABY is not available.
KABY
241120Z 2412/2512 00000KT P6SM SKC FM241500 17005KT P6SM SKC

GlobalAir.com is loading additional information.
 Current Weather at ABY
80.0 F° (26.7 C°)

North winds at 0.0 mph
Pressure:
30.16 in
Humidity:
35%
Wind:
North at 0.0 mph
Dew Point:
50.0 F° (10.0 C°)
Visibility:
10.00 mi
ABY NOAA Radar




Find All Airport Services Find A Hotel Find A Rental Car Find A Golf Course Find A Restaurant $100 Hamburger



Airport Weather Forecast for KABY

Translated METAR for KABY (1453 UTC)
METAR:
KABY 241453Z 08003KT 10SM CLR 29/10 A3016 RMK AO2 SLP211 T02940100 51012
Conditions at:
KABY (Southwest Georgia Rgnl, GA) observed 1453 UTC 24 May 2016
Temperature:
29°C (84.2°F)
Dewpoint:
10°C (50°F) [RH = 30.7]
Pressure:
30.16 inches Hg (1021.3 mb)
pressure at sea level is 211 in Hg
Winds:
from the E (080 degrees) at 3.5 mph (3 knots: 1.5 m/s)
Visibility:
10 mile(s)
Ceiling:
at least 12,000 feet AGL
Clouds:
Clear below 12,000 feet AGL
Remarks:
site is automated and HAS a precipitation sensor

Translated TAF for KABY (Southwest Georgia Rgnl, GA) (1120 UTC)
TAF text:
KABY 241120Z 2412/2512 00000KT P6SM SKC
Forecast period:
Tuesday May 24 2016 12:00 UTC - Wednesday May 25 2016 12:00 UTC
Forecast type:
FROM: standard forecast or significant change
Winds:
from the N (000 degrees) at 0 mph (0 knots: 0 m/s)
Visibility:
6 or more mile(s) (9.7+ km)
Ceiling:
at least 12,000 feet AGL
Clouds:
Clear Skies
Weather:
no significant weather observed at this time
TAF text:
FM241500 17005KT P6SM SKC
Forecast period:
Tuesday May 24 2016 15:00 UTC - Wednesday May 25 2016 12:00 UTC
Forecast type:
FROM: standard forecast or significant change
Winds:
from the S (170 degrees) at 5.8 mph (5 knots: 2.6 m/s)
Visibility:
6 or more mile(s) (9.7+ km)
Ceiling:
at least 12,000 feet AGL
Clouds:
Clear Skies
Weather:
no significant weather observed at this time
FBO's on the Field
FBO Company Facility Photos Services Transportation Aviation Fuel Prices: Prices include tax
Catering Weather Repair Courtesy Rental Type 100LL JetA JetA+ MOGAS 8087
 
Eagles of America, Inc. - ABY

Currently rated 5 by 1 person
FS:Epic
Last Updated: Apr-21
Login to update fuel prices
SS:
Contact Eagles of America, Inc. - ABYMore FBO Information
 
Add another FBO Facility Photos Catering Weather Repair Courtesy Rental Type 100LL JetA JetA+ MOGAS 8087
Services Transportation Aviation Fuel Prices: Prices include tax


model-print
model-print
model-print
model-print